KAUG/AUG METAR and TAF weather

Enter ICAO airport designator
Station Type Date Time Source
KAUG METAR 2022/06/27 17:53 UTC NOAA

KAUG 271753Z AUTO VRB04KT 10SM OVC006 21/19 A2984 RMK AO2 RAB00E33 CIG 004V011 SLP104 P0001 60014 T02060194 10239 20194 58004


Station Type Date Time Source
KAUG Decoded METAR 2022/06/27 17:53 UTC NOAA

AUGUSTA STATE AIRPORT, ME, United States (KAUG) 44-19N 069-48W 109M
Jun 27, 2022 - 01:53 PM EDT / 2022.06.27 1753 UTC
Wind: Variable at 5 MPH (4 KT):0
Visibility: 10 mile(s):0
Sky conditions: overcast
Precipitation last hour: 0.01 inches
Temperature: 69.1 F (20.6 C)
Dew Point: 66.9 F (19.4 C)
Relative Humidity: 92%
Pressure (altimeter): 29.84 in. Hg (1010 hPa)
Pressure tendency: 0.01 inches (0.4 hPa) lower than three hours ago
ob: KAUG 271753Z AUTO VRB04KT 10SM OVC006 21/19 A2984 RMK AO2 RAB00E33 CIG 004V011 SLP104 P0001 60014 T02060194 10239 20194 58004
cycle: 18

Station Type Date Time Source
KAUG TAF 2022/06/27 18:22 UTC NOAA

TAF KAUG 271720Z 2718/2818 VRB06G15KT P6SM BKN007 BKN028 OVC060
FM271900 21008KT P6SM OVC015
FM272100 22007KT P6SM OVC050
FM272200 23006KT P6SM OVC250
TEMPO 2804/2808 3SM BR
FM281200 31006KT P6SM SCT250

Example: see airport list